Costa Mediterranea — IBCF — position and weather

sailwx.info

Track history (hours):
 
Tides and Currents Weather Stations Pressure Air Temp Water Temp Dewpoint Dewpoint Depression Visibility Wind Speed Wind Dir Waves Ship Positions

Costa Mediterranea

Last reported at 2017-Jan-23 09:25 UTC. Time now 2017-Jan-23 16:45 UTC.
Position N 35°58' W 005°38'.

Length 293 m; draft 8 m.

Type: Passenger vessel. MMSI: 247088200.

Date/timePositionNaut miles runAvg speedWind from/ knotsBaromVisibWave heightAir tempDewpointWater temp
2017-Jan-23 09:25N 35°58' W 005°38'1315.6
2017-Jan-23 08:33N 36°02' W 005°22'21816.6
2017-Jan-22 19:27N 37°11' W 001°05'1819.5
2017-Jan-22 18:33N 37°23' W 000°48'1918.9
2017-Jan-22 17:34N 37°36' W 000°32'2019.3
2017-Jan-22 16:32N 37°52' W 000°18'9214.9
2017-Jan-22 10:21N 39°25' W 000°15'4 4.8
2017-Jan-22 09:33N 39°28' W 000°18'0 0.0
2017-Jan-22 08:33N 39°28' W 000°18'0 0.0
2017-Jan-22 07:26N 39°28' W 000°18'0 0.0
2017-Jan-22 06:31N 39°28' W 000°18'0 0.0
2017-Jan-22 05:31N 39°28' W 000°18'0 0.0
2017-Jan-22 04:25N 39°28' W 000°18'0 0.0
2017-Jan-22 03:31N 39°28' W 000°18'0 0.0
2017-Jan-22 02:32N 39°28' W 000°18'0 0.0
2017-Jan-22 01:32N 39°28' W 000°18'0 0.0
2017-Jan-22 00:32N 39°28' W 000°18'0 0.0
2017-Jan-21 23:32N 39°28' W 000°18'0 0.0
2017-Jan-21 22:32N 39°28' W 000°18'0 0.0
2017-Jan-21 21:28N 39°28' W 000°18'0 0.0
2017-Jan-21 20:28N 39°28' W 000°18'0 0.0
2017-Jan-21 19:31N 39°28' W 000°18'0 0.0
2017-Jan-21 18:31N 39°28' W 000°18'0 0.0
2017-Jan-21 17:31N 39°28' W 000°18'0 0.0
2017-Jan-21 16:31N 39°28' W 000°18'0 0.0
2017-Jan-21 15:33N 39°28' W 000°18'0 0.0
2017-Jan-21 14:32N 39°28' W 000°18'0 0.0
2017-Jan-21 13:32N 39°28' W 000°18'0 0.0
2017-Jan-21 12:32N 39°28' W 000°18'0 0.0
2017-Jan-21 11:25N 39°28' W 000°18'0 0.0
2017-Jan-21 10:28N 39°28' W 000°18'0 0.0
2017-Jan-21 09:31N 39°28' W 000°18'0 0.0
2017-Jan-21 08:31N 39°28' W 000°18'0 0.0
2017-Jan-21 07:30N 39°28' W 000°18'0 0.0
2017-Jan-21 06:33N 39°28' W 000°18'3 3.4
2017-Jan-21 05:34N 39°25' W 000°15'8917.7
2017-Jan-21 00:33N 39°12' E 001°39'1717.5
2017-Jan-20 23:33N 39°10' E 002°01'1817.7
2017-Jan-20 22:33N 39°07' E 002°23'1717.5
2017-Jan-20 21:33N 39°05' E 002°45'1817.6
2017-Jan-20 20:33N 39°03' E 003°08'1817.8
2017-Jan-20 19:33N 39°01' E 003°31'43517.3
2017-Jan-19 18:29N 38°19' E 012°45'1414.7
2017-Jan-19 17:33N 38°18' E 013°02'1514.6
2017-Jan-19 16:33N 38°17' E 013°20'1010.0
2017-Jan-19 15:33N 38°07' E 013°23'1 1.1
2017-Jan-19 14:32N 38°08' E 013°22'0 0.0
2017-Jan-19 13:32N 38°08' E 013°22'0 0.0
2017-Jan-19 12:32N 38°08' E 013°22'0 0.0
2017-Jan-19 11:32N 38°08' E 013°22'0 0.0
2017-Jan-19 10:32N 38°08' E 013°22'0 0.0
2017-Jan-19 09:32N 38°08' E 013°22'0 0.0
2017-Jan-19 08:32N 38°08' E 013°22'0 0.0
2017-Jan-19 07:32N 38°08' E 013°22'5 5.1
2017-Jan-19 06:33N 38°12' E 013°26'1413.6
2017-Jan-19 05:33N 38°25' E 013°30'1313.4
2017-Jan-19 04:33N 38°38' E 013°33'286 9.8
2017-Jan-17 23:32N 42°38' E 010°10'3618.0
2017-Jan-17 21:33N 43°03' E 009°35'1919.1
2017-Jan-17 20:34N 43°20' E 009°23'2019.5
2017-Jan-17 19:33N 43°36' E 009°08'2019.6
2017-Jan-17 18:34N 43°53' E 008°54'2020.0
2017-Jan-17 17:34N 44°10' E 008°39'1111.2
2017-Jan-17 16:33N 44°19' E 008°29'0 0.0
2017-Jan-17 15:26N 44°19' E 008°29'0 0.0
2017-Jan-17 14:26N 44°19' E 008°29'0 0.0
2017-Jan-17 13:32N 44°19' E 008°29'0 0.0
2017-Jan-17 12:32N 44°19' E 008°29'0 0.0
2017-Jan-17 11:32N 44°19' E 008°29'0 0.0
2017-Jan-17 10:26N 44°19' E 008°29'0 0.0
2017-Jan-17 09:26N 44°19' E 008°29'0 0.0
2017-Jan-17 08:34N 44°19' E 008°29'0 0.0
2017-Jan-17 07:28N 44°19' E 008°29'0 0.2
2017-Jan-17 06:33N 44°19' E 008°30'6 5.8
2017-Jan-17 05:33N 44°13' E 008°31'3516.2
2017-Jan-17 03:23N 43°46' E 007°60'1416.3
2017-Jan-17 02:32N 43°37' E 007°45'1312.9
2017-Jan-17 01:33N 43°29' E 007°31'1312.9
2017-Jan-17 00:32N 43°21' E 007°18'8911.2
2017-Jan-16 16:33N 43°16' E 005°16'5 1.7
2017-Jan-16 13:26N 43°21' E 005°20'0 0.0
2017-Jan-16 12:11N 43°21' E 005°20'0 0.0
2017-Jan-16 11:26N 43°21' E 005°20'0 0.0
2017-Jan-16 09:29N 43°21' E 005°20'0 0.0
2017-Jan-16 08:14N 43°21' E 005°20'0 0.0
2017-Jan-16 07:17N 43°21' E 005°20'4 5.0
2017-Jan-16 06:33N 43°19' E 005°15'1313.4
2017-Jan-16 05:33N 43°09' E 005°04'1615.6
2017-Jan-16 04:33N 42°56' E 004°51'1615.9
2017-Jan-16 03:33N 42°44' E 004°37'12815.8
2017-Jan-15 19:27N 41°03' E 002°51'1516.8
2017-Jan-15 18:33N 40°51' E 002°39'1717.5
2017-Jan-15 17:34N 40°37' E 002°25'1817.8
2017-Jan-15 16:33N 40°23' E 002°10'1818.4
2017-Jan-15 15:33N 40°09' E 001°55'1817.5
2017-Jan-15 14:33N 39°55' E 001°41'1717.3
2017-Jan-15 13:33N 39°41' E 001°27'12718.2
2017-Jan-15 06:34N 37°59' W 000°10'1818.3
2017-Jan-15 05:33N 37°44' W 000°22'1818.0
2017-Jan-15 04:33N 37°30' W 000°36'1818.2
2017-Jan-15 03:33N 37°18' W 000°54'  
Track history (hours):
 
Tides and Currents Weather Stations Pressure Air Temp Water Temp Dewpoint Dewpoint Depression Visibility Wind Speed Wind Dir Waves Ship Positions

Costa Mediterranea

Last reported at 2017-Jan-23 09:25 UTC. Time now 2017-Jan-23 16:45 UTC.
Position N 35°58' W 005°38'.

Length 293 m; draft 8 m.

Type: Passenger vessel. MMSI: 247088200.

Date/timePositionNaut miles runAvg speedWind from/ knotsBaromVisibWave heightAir tempDewpointWater temp
2017-Jan-23 09:25N 35°58' W 005°38'1315.6
2017-Jan-23 08:33N 36°02' W 005°22'21816.6
2017-Jan-22 19:27N 37°11' W 001°05'1819.5
2017-Jan-22 18:33N 37°23' W 000°48'1918.9
2017-Jan-22 17:34N 37°36' W 000°32'2019.3
2017-Jan-22 16:32N 37°52' W 000°18'9214.9
2017-Jan-22 10:21N 39°25' W 000°15'4 4.8
2017-Jan-22 09:33N 39°28' W 000°18'0 0.0
2017-Jan-22 08:33N 39°28' W 000°18'0 0.0
2017-Jan-22 07:26N 39°28' W 000°18'0 0.0
2017-Jan-22 06:31N 39°28' W 000°18'0 0.0
2017-Jan-22 05:31N 39°28' W 000°18'0 0.0
2017-Jan-22 04:25N 39°28' W 000°18'0 0.0
2017-Jan-22 03:31N 39°28' W 000°18'0 0.0
2017-Jan-22 02:32N 39°28' W 000°18'0 0.0
2017-Jan-22 01:32N 39°28' W 000°18'0 0.0
2017-Jan-22 00:32N 39°28' W 000°18'0 0.0
2017-Jan-21 23:32N 39°28' W 000°18'0 0.0
2017-Jan-21 22:32N 39°28' W 000°18'0 0.0
2017-Jan-21 21:28N 39°28' W 000°18'0 0.0
2017-Jan-21 20:28N 39°28' W 000°18'0 0.0
2017-Jan-21 19:31N 39°28' W 000°18'0 0.0
2017-Jan-21 18:31N 39°28' W 000°18'0 0.0
2017-Jan-21 17:31N 39°28' W 000°18'0 0.0
2017-Jan-21 16:31N 39°28' W 000°18'0 0.0
2017-Jan-21 15:33N 39°28' W 000°18'0 0.0
2017-Jan-21 14:32N 39°28' W 000°18'0 0.0
2017-Jan-21 13:32N 39°28' W 000°18'0 0.0
2017-Jan-21 12:32N 39°28' W 000°18'0 0.0
2017-Jan-21 11:25N 39°28' W 000°18'0 0.0
2017-Jan-21 10:28N 39°28' W 000°18'0 0.0
2017-Jan-21 09:31N 39°28' W 000°18'0 0.0
2017-Jan-21 08:31N 39°28' W 000°18'0 0.0
2017-Jan-21 07:30N 39°28' W 000°18'0 0.0
2017-Jan-21 06:33N 39°28' W 000°18'3 3.4
2017-Jan-21 05:34N 39°25' W 000°15'8917.7
2017-Jan-21 00:33N 39°12' E 001°39'1717.5
2017-Jan-20 23:33N 39°10' E 002°01'1817.7
2017-Jan-20 22:33N 39°07' E 002°23'1717.5
2017-Jan-20 21:33N 39°05' E 002°45'1817.6
2017-Jan-20 20:33N 39°03' E 003°08'1817.8
2017-Jan-20 19:33N 39°01' E 003°31'43517.3
2017-Jan-19 18:29N 38°19' E 012°45'1414.7
2017-Jan-19 17:33N 38°18' E 013°02'1514.6
2017-Jan-19 16:33N 38°17' E 013°20'1010.0
2017-Jan-19 15:33N 38°07' E 013°23'1 1.1
2017-Jan-19 14:32N 38°08' E 013°22'0 0.0
2017-Jan-19 13:32N 38°08' E 013°22'0 0.0
2017-Jan-19 12:32N 38°08' E 013°22'0 0.0
2017-Jan-19 11:32N 38°08' E 013°22'0 0.0
2017-Jan-19 10:32N 38°08' E 013°22'0 0.0
2017-Jan-19 09:32N 38°08' E 013°22'0 0.0
2017-Jan-19 08:32N 38°08' E 013°22'0 0.0
2017-Jan-19 07:32N 38°08' E 013°22'5 5.1
2017-Jan-19 06:33N 38°12' E 013°26'1413.6
2017-Jan-19 05:33N 38°25' E 013°30'1313.4
2017-Jan-19 04:33N 38°38' E 013°33'286 9.8
2017-Jan-17 23:32N 42°38' E 010°10'3618.0
2017-Jan-17 21:33N 43°03' E 009°35'1919.1
2017-Jan-17 20:34N 43°20' E 009°23'2019.5
2017-Jan-17 19:33N 43°36' E 009°08'2019.6
2017-Jan-17 18:34N 43°53' E 008°54'2020.0
2017-Jan-17 17:34N 44°10' E 008°39'1111.2
2017-Jan-17 16:33N 44°19' E 008°29'0 0.0
2017-Jan-17 15:26N 44°19' E 008°29'0 0.0
2017-Jan-17 14:26N 44°19' E 008°29'0 0.0
2017-Jan-17 13:32N 44°19' E 008°29'0 0.0
2017-Jan-17 12:32N 44°19' E 008°29'0 0.0
2017-Jan-17 11:32N 44°19' E 008°29'0 0.0
2017-Jan-17 10:26N 44°19' E 008°29'0 0.0
2017-Jan-17 09:26N 44°19' E 008°29'0 0.0
2017-Jan-17 08:34N 44°19' E 008°29'0 0.0
2017-Jan-17 07:28N 44°19' E 008°29'0 0.2
2017-Jan-17 06:33N 44°19' E 008°30'6 5.8
2017-Jan-17 05:33N 44°13' E 008°31'3516.2
2017-Jan-17 03:23N 43°46' E 007°60'1416.3
2017-Jan-17 02:32N 43°37' E 007°45'1312.9
2017-Jan-17 01:33N 43°29' E 007°31'1312.9
2017-Jan-17 00:32N 43°21' E 007°18'8911.2
2017-Jan-16 16:33N 43°16' E 005°16'5 1.7
2017-Jan-16 13:26N 43°21' E 005°20'0 0.0
2017-Jan-16 12:11N 43°21' E 005°20'0 0.0
2017-Jan-16 11:26N 43°21' E 005°20'0 0.0
2017-Jan-16 09:29N 43°21' E 005°20'0 0.0
2017-Jan-16 08:14N 43°21' E 005°20'0 0.0
2017-Jan-16 07:17N 43°21' E 005°20'4 5.0
2017-Jan-16 06:33N 43°19' E 005°15'1313.4
2017-Jan-16 05:33N 43°09' E 005°04'1615.6
2017-Jan-16 04:33N 42°56' E 004°51'1615.9
2017-Jan-16 03:33N 42°44' E 004°37'12815.8
2017-Jan-15 19:27N 41°03' E 002°51'1516.8
2017-Jan-15 18:33N 40°51' E 002°39'1717.5
2017-Jan-15 17:34N 40°37' E 002°25'1817.8
2017-Jan-15 16:33N 40°23' E 002°10'1818.4
2017-Jan-15 15:33N 40°09' E 001°55'1817.5
2017-Jan-15 14:33N 39°55' E 001°41'1717.3
2017-Jan-15 13:33N 39°41' E 001°27'12718.2
2017-Jan-15 06:34N 37°59' W 000°10'1818.3
2017-Jan-15 05:33N 37°44' W 000°22'1818.0
2017-Jan-15 04:33N 37°30' W 000°36'1818.2
2017-Jan-15 03:33N 37°18' W 000°54'  

Dump ship's entire track history